createdAt,value
2022-11-09T00:01:03.396Z,11.70
2022-11-09T00:03:30.962Z,11.70
2022-11-09T00:05:59.788Z,11.70
2022-11-09T00:08:27.751Z,11.70
2022-11-09T00:10:55.549Z,11.80
2022-11-09T00:13:23.417Z,11.70
2022-11-09T00:15:51.108Z,11.70
2022-11-09T00:18:18.511Z,11.70
2022-11-09T00:20:48.010Z,11.70
2022-11-09T00:23:17.389Z,11.80
2022-11-09T00:25:45.369Z,11.80
2022-11-09T00:28:12.886Z,11.80
2022-11-09T00:30:41.257Z,11.70
2022-11-09T00:33:12.044Z,11.70
2022-11-09T00:35:39.552Z,11.70
2022-11-09T00:38:06.810Z,11.70
2022-11-09T00:40:34.283Z,11.60
2022-11-09T00:43:01.642Z,11.60
2022-11-09T00:45:28.885Z,11.60
2022-11-09T00:47:58.224Z,11.60
2022-11-09T00:50:26.849Z,11.60
2022-11-09T00:52:54.343Z,11.60
2022-11-09T00:55:23.855Z,11.60
2022-11-09T00:57:51.612Z,11.60
2022-11-09T01:00:23.555Z,11.50
2022-11-09T01:02:51.100Z,11.50
2022-11-09T01:05:20.423Z,11.50
2022-11-09T01:07:50.614Z,11.50
2022-11-09T01:10:17.943Z,11.50
2022-11-09T01:12:47.204Z,11.50
2022-11-09T01:15:15.640Z,11.50
2022-11-09T01:17:43.270Z,11.50
2022-11-09T01:20:12.001Z,11.50
2022-11-09T01:22:39.422Z,11.50
2022-11-09T01:25:07.162Z,11.50
2022-11-09T01:27:34.642Z,11.50
2022-11-09T01:30:01.919Z,11.50
2022-11-09T01:32:32.307Z,11.50
2022-11-09T01:34:59.668Z,11.50
2022-11-09T01:37:26.928Z,11.50
2022-11-09T01:39:54.429Z,11.50
2022-11-09T01:42:24.636Z,11.40
2022-11-09T01:45:30.880Z,11.40
2022-11-09T01:48:01.409Z,11.40
2022-11-09T01:50:37.854Z,11.40
2022-11-09T01:53:09.255Z,11.40
2022-11-09T01:55:37.363Z,11.40
2022-11-09T01:58:10.099Z,11.30
2022-11-09T02:00:40.707Z,11.30
2022-11-09T02:03:14.894Z,11.30
2022-11-09T02:05:43.476Z,11.20
2022-11-09T02:08:14.529Z,11.20
2022-11-09T02:11:13.854Z,11.20
2022-11-09T02:13:48.042Z,11.20
2022-11-09T02:16:16.211Z,11.30
2022-11-09T02:18:52.046Z,11.30
2022-11-09T02:21:21.407Z,11.30
2022-11-09T02:23:49.351Z,11.40
2022-11-09T02:26:23.763Z,11.40
2022-11-09T02:28:54.481Z,11.40
2022-11-09T02:31:27.898Z,11.40
2022-11-09T02:34:00.608Z,11.50
2022-11-09T02:36:28.102Z,11.60
2022-11-09T02:38:56.292Z,11.60
2022-11-09T02:41:24.594Z,11.60
2022-11-09T02:43:53.338Z,11.70
2022-11-09T02:46:47.167Z,11.70
2022-11-09T02:49:15.167Z,11.70
2022-11-09T02:51:42.939Z,11.70
2022-11-09T02:54:10.783Z,11.60
2022-11-09T02:56:39.519Z,11.60
2022-11-09T02:59:06.987Z,11.60
2022-11-09T03:01:34.566Z,11.60
2022-11-09T03:04:02.075Z,11.70
2022-11-09T03:06:35.629Z,11.70
2022-11-09T03:09:10.446Z,11.70
2022-11-09T03:11:40.029Z,11.80
2022-11-09T03:14:09.958Z,11.80
2022-11-09T03:16:39.967Z,11.90
2022-11-09T03:19:08.456Z,11.90
2022-11-09T03:21:36.024Z,11.90
2022-11-09T03:24:03.513Z,12.00
2022-11-09T03:26:30.919Z,12.00
2022-11-09T03:28:58.737Z,12.00
2022-11-09T03:31:26.388Z,12.10
2022-11-09T03:33:55.517Z,12.10
2022-11-09T03:36:22.977Z,12.10
2022-11-09T03:38:50.982Z,12.10
2022-11-09T03:41:18.446Z,12.10
2022-11-09T03:43:45.898Z,12.10
2022-11-09T03:46:13.334Z,12.10
2022-11-09T03:48:40.699Z,12.20
2022-11-09T03:51:08.158Z,12.20
2022-11-09T03:53:35.825Z,12.20
2022-11-09T03:56:03.364Z,12.20
2022-11-09T03:58:30.707Z,12.30
2022-11-09T04:00:58.163Z,12.30
2022-11-09T04:03:25.674Z,12.30
2022-11-09T04:05:53.143Z,12.30
2022-11-09T04:08:20.580Z,12.30
2022-11-09T04:10:47.976Z,12.30
2022-11-09T04:13:15.545Z,12.40
2022-11-09T04:15:43.695Z,12.40
2022-11-09T04:18:16.867Z,12.40
2022-11-09T04:20:44.190Z,12.40
2022-11-09T04:23:13.342Z,12.40
2022-11-09T04:25:41.872Z,12.50
2022-11-09T04:28:12.650Z,12.50
2022-11-09T04:30:40.628Z,12.50
2022-11-09T04:33:09.381Z,12.50
2022-11-09T04:35:38.053Z,12.50
2022-11-09T04:38:07.670Z,12.50
2022-11-09T04:40:36.228Z,12.50
2022-11-09T04:43:05.792Z,12.50
2022-11-09T04:45:34.525Z,12.50
2022-11-09T04:48:04.307Z,12.40
2022-11-09T04:50:32.706Z,12.40
2022-11-09T04:53:12.354Z,12.40
2022-11-09T04:55:40.932Z,12.30
2022-11-09T04:58:08.651Z,12.30
2022-11-09T05:00:37.036Z,12.30
2022-11-09T05:03:05.874Z,12.20
2022-11-09T05:05:34.891Z,12.20
2022-11-09T05:08:03.051Z,12.10
2022-11-09T05:10:30.751Z,12.10
2022-11-09T05:13:02.617Z,12.10
2022-11-09T05:15:30.983Z,12.00
2022-11-09T05:17:58.733Z,12.00
2022-11-09T05:20:26.346Z,12.00
2022-11-09T05:23:12.888Z,12.00
2022-11-09T05:25:40.342Z,12.00
2022-11-09T05:28:09.584Z,12.00
2022-11-09T05:30:38.011Z,12.00
2022-11-09T05:33:05.646Z,12.00
2022-11-09T05:35:34.167Z,12.00
2022-11-09T05:38:01.708Z,12.00
2022-11-09T05:40:29.372Z,12.10
2022-11-09T05:42:56.883Z,12.10
2022-11-09T05:45:41.991Z,12.10
2022-11-09T05:48:12.118Z,12.10
2022-11-09T05:50:41.227Z,12.10
2022-11-09T05:53:26.957Z,12.10
2022-11-09T05:55:54.463Z,12.10
2022-11-09T05:58:23.260Z,12.20
2022-11-09T06:00:50.837Z,12.20
2022-11-09T06:03:18.655Z,12.20
2022-11-09T06:05:47.577Z,12.20
2022-11-09T06:08:15.618Z,12.20
2022-11-09T06:10:43.544Z,12.20
2022-11-09T06:13:11.341Z,12.30
2022-11-09T06:15:38.858Z,12.30
2022-11-09T06:18:06.321Z,12.30
2022-11-09T06:20:33.848Z,12.30
2022-11-09T06:23:04.152Z,12.30
2022-11-09T06:25:33.413Z,12.40
2022-11-09T06:28:01.330Z,12.40
2022-11-09T06:30:29.232Z,12.40
2022-11-09T06:33:03.470Z,12.40
2022-11-09T06:35:32.327Z,12.40
2022-11-09T06:38:00.654Z,12.40
2022-11-09T06:40:28.786Z,12.30
2022-11-09T06:42:58.746Z,12.30
2022-11-09T06:45:28.442Z,12.30
2022-11-09T06:47:57.786Z,12.30
2022-11-09T06:50:26.827Z,12.30
2022-11-09T06:52:59.294Z,12.20
2022-11-09T06:55:28.472Z,12.20
2022-11-09T06:57:56.675Z,12.20
2022-11-09T07:00:25.694Z,12.10
2022-11-09T07:02:53.562Z,12.10
2022-11-09T07:05:21.361Z,12.10
2022-11-09T07:07:49.207Z,12.10
2022-11-09T07:10:17.353Z,12.00
2022-11-09T07:12:44.970Z,12.00
2022-11-09T07:15:12.802Z,11.90
2022-11-09T07:17:41.309Z,11.90
2022-11-09T07:20:10.548Z,11.90
2022-11-09T07:22:39.790Z,11.90
2022-11-09T07:25:09.059Z,11.80
2022-11-09T07:27:37.218Z,11.80
2022-11-09T07:30:05.778Z,11.80
2022-11-09T07:35:24.854Z,11.80
2022-11-09T07:37:52.774Z,11.70
2022-11-09T07:40:21.178Z,11.80
2022-11-09T07:42:48.850Z,11.80
2022-11-09T07:45:16.534Z,11.70
2022-11-09T07:47:44.000Z,11.80
2022-11-09T07:50:11.380Z,11.80
2022-11-09T07:52:38.707Z,11.80
2022-11-09T07:55:06.836Z,11.80
2022-11-09T07:57:34.379Z,11.80
2022-11-09T08:00:01.883Z,11.80
2022-11-09T08:02:38.733Z,11.90
2022-11-09T08:05:07.292Z,11.90
2022-11-09T08:07:35.329Z,11.90
2022-11-09T08:10:03.011Z,12.00
2022-11-09T08:12:34.345Z,12.00
2022-11-09T08:15:05.951Z,12.00
2022-11-09T08:17:33.569Z,12.10
2022-11-09T08:20:01.051Z,12.10
2022-11-09T08:22:28.950Z,12.10
2022-11-09T08:24:56.629Z,12.10
2022-11-09T08:27:24.368Z,12.10
2022-11-09T08:29:51.767Z,12.20
2022-11-09T08:32:19.266Z,12.20
2022-11-09T08:34:48.553Z,12.20
2022-11-09T08:37:17.027Z,12.20
2022-11-09T08:39:44.525Z,12.30
2022-11-09T08:42:11.879Z,12.30
2022-11-09T08:44:39.364Z,12.30
2022-11-09T08:47:06.793Z,12.30
2022-11-09T08:49:34.770Z,12.30
2022-11-09T08:52:02.199Z,12.30
2022-11-09T08:54:29.637Z,12.30
2022-11-09T08:56:57.072Z,12.30
2022-11-09T08:59:24.562Z,12.30
2022-11-09T09:01:52.238Z,12.30
2022-11-09T09:04:19.691Z,12.40
2022-11-09T09:06:47.161Z,12.40
2022-11-09T09:09:15.086Z,12.40
2022-11-09T09:11:42.572Z,12.40
2022-11-09T09:14:09.948Z,12.40
2022-11-09T09:16:37.752Z,12.40
2022-11-09T09:19:05.410Z,12.40
2022-11-09T09:21:33.018Z,12.50
2022-11-09T09:24:00.503Z,12.40
2022-11-09T09:26:28.027Z,12.40
2022-11-09T09:28:55.595Z,12.40
2022-11-09T09:31:23.291Z,12.40
2022-11-09T09:33:51.009Z,12.40
2022-11-09T09:36:20.833Z,12.40
2022-11-09T09:38:53.890Z,12.40
2022-11-09T09:41:38.391Z,12.40
2022-11-09T09:44:30.538Z,12.50
2022-11-09T09:47:25.068Z,12.40
2022-11-09T09:50:02.866Z,12.50
2022-11-09T09:53:22.119Z,12.60
2022-11-09T09:55:51.253Z,12.60
2022-11-09T09:58:30.250Z,12.70
2022-11-09T10:01:04.810Z,12.70
2022-11-09T10:03:32.447Z,12.80
2022-11-09T10:06:11.818Z,12.90
2022-11-09T10:08:57.641Z,12.90
2022-11-09T10:11:36.392Z,13.00
2022-11-09T10:14:11.304Z,13.10
2022-11-09T10:16:43.667Z,13.20
2022-11-09T10:19:28.608Z,13.30
2022-11-09T10:22:12.171Z,13.30
2022-11-09T10:25:18.650Z,13.40
2022-11-09T10:27:55.669Z,13.50
2022-11-09T10:30:25.230Z,13.60
2022-11-09T10:32:57.014Z,13.60
2022-11-09T10:35:36.492Z,13.70
2022-11-09T10:38:04.594Z,13.80
2022-11-09T10:40:44.103Z,13.80
2022-11-09T10:43:30.296Z,13.90
2022-11-09T10:46:17.435Z,14.00
2022-11-09T10:49:20.128Z,14.10
2022-11-09T10:52:26.781Z,14.20
2022-11-09T10:55:23.825Z,14.20
2022-11-09T10:58:39.368Z,14.30
2022-11-09T11:01:35.632Z,14.40
2022-11-09T11:04:24.754Z,14.40
2022-11-09T11:07:19.747Z,14.50
2022-11-09T11:10:16.914Z,14.50
2022-11-09T11:13:05.313Z,14.70
2022-11-09T11:15:52.345Z,14.70
2022-11-09T11:18:46.255Z,14.80
2022-11-09T11:21:32.379Z,15.00
2022-11-09T11:24:20.439Z,15.00
2022-11-09T11:27:14.312Z,15.20
2022-11-09T11:30:12.058Z,15.30
2022-11-09T11:32:58.631Z,15.50
2022-11-09T11:35:50.190Z,15.60
2022-11-09T11:38:39.466Z,15.80
2022-11-09T11:41:57.132Z,16.00
2022-11-09T11:45:07.386Z,16.20
2022-11-09T11:48:27.656Z,16.40
2022-11-09T11:51:25.804Z,16.50
2022-11-09T11:54:31.888Z,16.60
2022-11-09T11:57:37.355Z,16.70
2022-11-09T12:00:23.208Z,16.80
2022-11-09T12:03:39.245Z,16.90
2022-11-09T12:07:02.753Z,17.10
2022-11-09T12:09:56.863Z,17.30
2022-11-09T12:12:50.861Z,17.40
2022-11-09T12:15:56.670Z,17.50
2022-11-09T12:19:11.943Z,17.60
2022-11-09T12:22:22.915Z,17.70
2022-11-09T12:25:34.991Z,17.70
2022-11-09T12:28:30.033Z,17.70
2022-11-09T12:31:54.543Z,17.60
2022-11-09T12:34:57.748Z,17.60
2022-11-09T12:37:54.783Z,17.50
2022-11-09T12:41:08.286Z,17.50
2022-11-09T12:44:00.857Z,17.40
2022-11-09T12:46:52.282Z,17.40
2022-11-09T12:49:44.392Z,17.40
2022-11-09T12:52:31.065Z,17.30
2022-11-09T12:55:27.076Z,17.30
2022-11-09T12:58:24.556Z,17.20
2022-11-09T13:01:34.161Z,17.20
2022-11-09T13:04:21.811Z,17.20
2022-11-09T13:07:14.614Z,17.10
2022-11-09T13:10:02.274Z,17.10
2022-11-09T13:12:48.275Z,17.10
2022-11-09T13:15:35.814Z,17.00
2022-11-09T13:18:46.100Z,17.10
2022-11-09T13:21:34.190Z,17.00
2022-11-09T13:24:36.055Z,17.10
2022-11-09T13:27:37.510Z,17.10
2022-11-09T13:30:23.692Z,17.10
2022-11-09T13:33:19.051Z,17.20
2022-11-09T13:36:08.177Z,17.20
2022-11-09T13:39:23.520Z,17.20
2022-11-09T13:42:33.824Z,17.30
2022-11-09T13:45:36.283Z,17.30
2022-11-09T13:48:36.388Z,17.20
2022-11-09T13:51:35.935Z,17.20
2022-11-09T13:54:32.626Z,17.20
2022-11-09T13:57:18.483Z,17.20
2022-11-09T14:00:07.336Z,17.20
2022-11-09T14:03:03.033Z,17.20
2022-11-09T14:05:52.248Z,17.20
2022-11-09T14:08:43.234Z,17.20
2022-11-09T14:12:04.943Z,17.20
2022-11-09T14:14:59.885Z,17.20
2022-11-09T14:18:07.871Z,17.20
2022-11-09T14:21:17.551Z,17.20
2022-11-09T14:24:16.079Z,17.20
2022-11-09T14:27:22.139Z,17.10
2022-11-09T14:30:23.569Z,17.00
2022-11-09T14:33:27.609Z,17.00
2022-11-09T14:36:14.466Z,16.90
2022-11-09T14:39:04.595Z,16.80
2022-11-09T14:41:51.868Z,16.80
2022-11-09T14:44:43.744Z,16.70
2022-11-09T14:47:37.103Z,16.70
2022-11-09T14:50:30.374Z,16.70
2022-11-09T14:53:31.929Z,16.60
2022-11-09T14:56:21.427Z,16.60
2022-11-09T14:59:11.736Z,16.50
2022-11-09T15:02:08.214Z,16.50
2022-11-09T15:04:57.318Z,16.50
2022-11-09T15:07:47.025Z,16.40
2022-11-09T15:10:33.836Z,16.40
2022-11-09T15:13:32.651Z,16.40
2022-11-09T15:16:26.407Z,16.40
2022-11-09T15:19:37.054Z,16.40
2022-11-09T15:22:57.294Z,16.40
2022-11-09T15:25:43.462Z,16.30
2022-11-09T15:28:31.020Z,16.30
2022-11-09T15:31:19.285Z,16.30
2022-11-09T15:34:29.015Z,16.20
2022-11-09T15:37:29.395Z,16.20
2022-11-09T15:40:19.378Z,16.20
2022-11-09T15:43:05.433Z,16.10
2022-11-09T15:45:51.361Z,16.10
2022-11-09T15:48:40.027Z,16.10
2022-11-09T15:51:29.679Z,16.00
2022-11-09T15:54:16.634Z,16.00
2022-11-09T15:57:04.785Z,16.00
2022-11-09T15:59:52.048Z,16.00
2022-11-09T16:02:38.959Z,16.00
2022-11-09T16:05:35.297Z,15.90
2022-11-09T16:08:22.114Z,15.90
2022-11-09T16:11:10.549Z,15.90
2022-11-09T16:13:59.000Z,15.90
2022-11-09T16:16:45.697Z,15.90
2022-11-09T16:19:32.434Z,15.90
2022-11-09T16:22:20.664Z,15.90
2022-11-09T16:25:15.412Z,15.80
2022-11-09T16:28:01.716Z,15.90
2022-11-09T16:30:52.909Z,15.80
2022-11-09T16:33:40.124Z,15.80
2022-11-09T16:36:28.668Z,15.80
2022-11-09T16:39:17.941Z,15.80
2022-11-09T16:42:07.966Z,15.80
2022-11-09T16:44:59.312Z,15.70
2022-11-09T16:47:52.693Z,15.70
2022-11-09T16:50:39.173Z,15.70
2022-11-09T16:53:27.142Z,15.70
2022-11-09T16:56:14.039Z,15.70
2022-11-09T16:59:03.681Z,15.60
2022-11-09T17:01:58.110Z,15.60
2022-11-09T17:04:44.777Z,15.60
2022-11-09T17:07:31.741Z,15.60
2022-11-09T17:10:20.871Z,15.60
2022-11-09T17:13:07.844Z,15.60
2022-11-09T17:15:53.753Z,15.60
2022-11-09T17:18:42.197Z,15.60
2022-11-09T17:21:29.679Z,15.60
2022-11-09T17:24:16.480Z,15.60
2022-11-09T17:27:02.937Z,15.50
2022-11-09T17:29:49.195Z,15.50
2022-11-09T17:32:38.011Z,15.50
2022-11-09T17:35:24.620Z,15.50
2022-11-09T17:38:11.569Z,15.50
2022-11-09T17:41:10.901Z,15.50
2022-11-09T17:44:01.860Z,15.50
2022-11-09T17:46:48.232Z,15.50
2022-11-09T17:49:34.278Z,15.50
2022-11-09T17:52:20.123Z,15.50
2022-11-09T17:55:06.595Z,15.40
2022-11-09T17:57:52.511Z,15.40
2022-11-09T18:00:39.557Z,15.40
2022-11-09T18:03:25.633Z,15.40
2022-11-09T18:06:21.796Z,15.40
2022-11-09T18:12:16.293Z,15.40
2022-11-09T18:15:02.171Z,15.30
2022-11-09T18:17:48.311Z,15.30
2022-11-09T18:20:38.667Z,15.30
2022-11-09T18:23:25.095Z,15.30
2022-11-09T18:26:12.314Z,15.30
2022-11-09T18:28:58.535Z,15.30
2022-11-09T18:31:44.609Z,15.30
2022-11-09T18:34:30.690Z,15.20
2022-11-09T18:37:16.756Z,15.20
2022-11-09T18:40:02.397Z,15.20
2022-11-09T18:42:48.753Z,15.20
2022-11-09T18:45:35.030Z,15.20
2022-11-09T18:48:21.796Z,15.20
2022-11-09T18:51:08.930Z,15.20
2022-11-09T18:53:54.745Z,15.20
2022-11-09T18:56:40.722Z,15.20
2022-11-09T18:59:26.610Z,15.10
2022-11-09T19:02:13.953Z,15.10
2022-11-09T19:05:00.037Z,15.10
2022-11-09T19:07:46.029Z,15.10
2022-11-09T19:10:35.418Z,15.10
2022-11-09T19:13:21.354Z,15.10
2022-11-09T19:16:11.326Z,15.10
2022-11-09T19:18:58.235Z,15.10
2022-11-09T19:21:52.549Z,15.10
2022-11-09T19:24:38.519Z,15.10
2022-11-09T19:27:28.679Z,15.10
2022-11-09T19:30:14.891Z,15.10
2022-11-09T19:33:00.772Z,15.20
2022-11-09T19:36:15.127Z,15.10
2022-11-09T19:38:58.158Z,15.10
2022-11-09T19:41:44.727Z,15.10
2022-11-09T19:44:30.921Z,15.10
2022-11-09T19:47:17.425Z,15.20
2022-11-09T19:50:04.070Z,15.20
2022-11-09T19:52:50.239Z,15.20
2022-11-09T19:55:37.563Z,15.20
2022-11-09T19:58:24.018Z,15.20
2022-11-09T20:01:12.109Z,15.20
2022-11-09T20:04:00.570Z,15.20
2022-11-09T20:06:46.632Z,15.20
2022-11-09T20:09:32.889Z,15.20
2022-11-09T20:12:37.853Z,15.20
2022-11-09T20:15:23.882Z,15.20
2022-11-09T20:18:12.382Z,15.10
2022-11-09T20:20:58.743Z,15.20
2022-11-09T20:23:47.138Z,15.10
2022-11-09T20:26:33.663Z,15.10
2022-11-09T20:29:19.966Z,15.10
2022-11-09T20:32:07.885Z,15.10
2022-11-09T20:34:55.507Z,15.10
2022-11-09T20:37:41.947Z,15.00
2022-11-09T20:40:27.974Z,15.00
2022-11-09T20:43:13.761Z,15.00
2022-11-09T20:46:08.151Z,15.00
2022-11-09T20:48:55.561Z,15.00
2022-11-09T20:51:42.025Z,15.00
2022-11-09T20:54:27.770Z,15.00
2022-11-09T20:57:13.742Z,15.00
2022-11-09T20:59:59.941Z,15.00
2022-11-09T21:02:45.890Z,15.00
2022-11-09T21:05:33.226Z,15.00
2022-11-09T21:08:19.944Z,15.00
2022-11-09T21:11:08.123Z,15.00
2022-11-09T21:13:55.385Z,15.00
2022-11-09T21:16:41.271Z,15.00
2022-11-09T21:19:27.258Z,15.00
2022-11-09T21:22:14.019Z,15.00
2022-11-09T21:25:18.717Z,15.00
2022-11-09T21:28:23.977Z,15.00
2022-11-09T21:31:10.520Z,15.00
2022-11-09T21:33:56.807Z,15.00
2022-11-09T21:36:43.740Z,14.90
2022-11-09T21:39:29.794Z,15.00
2022-11-09T21:42:15.735Z,14.90
2022-11-09T21:45:01.385Z,14.90
2022-11-09T21:47:47.408Z,14.90
2022-11-09T21:50:34.339Z,14.90
2022-11-09T21:53:20.317Z,14.90
2022-11-09T21:56:07.269Z,14.90
2022-11-09T21:58:53.538Z,14.90
2022-11-09T22:01:40.918Z,14.90
2022-11-09T22:04:26.765Z,14.90
2022-11-09T22:07:12.557Z,14.90
2022-11-09T22:10:09.831Z,14.90
2022-11-09T22:13:14.817Z,14.90
2022-11-09T22:16:09.097Z,14.90
2022-11-09T22:19:14.132Z,14.90
2022-11-09T22:22:00.111Z,14.90
2022-11-09T22:24:45.839Z,14.90
2022-11-09T22:27:32.564Z,14.80
2022-11-09T22:30:18.401Z,14.80
2022-11-09T22:33:04.188Z,14.80
2022-11-09T22:35:55.842Z,14.80
2022-11-09T22:38:41.949Z,14.80
2022-11-09T22:41:27.755Z,14.80
2022-11-09T22:44:13.523Z,14.80
2022-11-09T22:46:59.433Z,14.80
2022-11-09T22:49:45.400Z,14.80
2022-11-09T22:52:31.332Z,14.80
2022-11-09T22:55:18.292Z,14.80
2022-11-09T22:58:04.419Z,14.80
2022-11-09T23:00:51.328Z,14.80
2022-11-09T23:03:37.970Z,14.70
2022-11-09T23:06:24.217Z,14.70
2022-11-09T23:09:10.770Z,14.70
2022-11-09T23:11:56.616Z,14.70
2022-11-09T23:15:01.250Z,14.70
2022-11-09T23:18:06.069Z,14.70
2022-11-09T23:20:52.218Z,14.70
2022-11-09T23:23:38.523Z,14.70
2022-11-09T23:26:25.509Z,14.60
2022-11-09T23:29:11.647Z,14.60
2022-11-09T23:31:57.358Z,14.60
2022-11-09T23:34:43.265Z,14.60
2022-11-09T23:37:29.330Z,14.50
2022-11-09T23:40:15.294Z,14.50
2022-11-09T23:43:03.255Z,14.50
2022-11-09T23:45:49.400Z,14.50
2022-11-09T23:48:35.477Z,14.50
2022-11-09T23:51:23.310Z,14.50
2022-11-09T23:54:09.274Z,14.50
2022-11-09T23:56:55.087Z,14.40
2022-11-09T23:59:40.896Z,14.40
